createdAt,value
2022-08-02T00:00:12.044Z,20.70
2022-08-02T00:02:38.782Z,20.70
2022-08-02T00:05:06.289Z,20.70
2022-08-02T00:07:37.566Z,20.70
2022-08-02T00:10:08.920Z,20.70
2022-08-02T00:12:35.941Z,20.70
2022-08-02T00:15:02.788Z,20.70
2022-08-02T00:17:29.442Z,20.60
2022-08-02T00:19:56.139Z,20.60
2022-08-02T00:22:22.908Z,20.60
2022-08-02T00:24:49.587Z,20.60
2022-08-02T00:27:16.243Z,20.50
2022-08-02T00:29:53.241Z,20.40
2022-08-02T00:32:20.998Z,20.20
2022-08-02T00:34:47.943Z,20.10
2022-08-02T00:37:15.196Z,20.00
2022-08-02T00:39:43.002Z,19.90
2022-08-02T00:42:10.284Z,19.80
2022-08-02T00:44:37.348Z,19.70
2022-08-02T00:47:04.062Z,19.70
2022-08-02T00:49:30.847Z,19.70
2022-08-02T00:52:00.217Z,19.70
2022-08-02T00:54:27.261Z,19.70
2022-08-02T00:56:53.952Z,19.70
2022-08-02T00:59:20.669Z,19.70
2022-08-02T01:01:55.968Z,19.60
2022-08-02T01:04:29.933Z,19.50
2022-08-02T01:07:12.072Z,19.60
2022-08-02T01:09:42.143Z,19.60
2022-08-02T01:12:09.516Z,19.50
2022-08-02T01:14:37.110Z,19.50
2022-08-02T01:17:27.668Z,19.50
2022-08-02T01:20:09.386Z,19.50
2022-08-02T01:23:01.104Z,19.50
2022-08-02T01:25:58.206Z,19.50
2022-08-02T01:28:40.568Z,19.50
2022-08-02T01:31:18.229Z,19.40
2022-08-02T01:33:54.129Z,19.40
2022-08-02T01:36:23.257Z,19.40
2022-08-02T01:38:53.352Z,19.30
2022-08-02T01:41:24.276Z,19.30
2022-08-02T01:43:55.515Z,19.30
2022-08-02T01:46:23.053Z,19.20
2022-08-02T01:48:50.861Z,19.20
2022-08-02T01:51:20.304Z,19.10
2022-08-02T01:53:51.261Z,18.90
2022-08-02T01:56:19.489Z,18.90
2022-08-02T01:58:48.006Z,18.80
2022-08-02T02:01:18.347Z,18.70
2022-08-02T02:03:47.992Z,18.70
2022-08-02T02:06:16.209Z,18.70
2022-08-02T02:08:44.517Z,18.70
2022-08-02T02:12:05.181Z,18.60
2022-08-02T02:14:00.788Z,18.50
2022-08-02T02:16:28.539Z,18.40
2022-08-02T02:18:55.689Z,18.40
2022-08-02T02:21:22.569Z,18.30
2022-08-02T02:23:50.749Z,18.20
2022-08-02T02:26:29.355Z,18.20
2022-08-02T02:29:02.022Z,18.20
2022-08-02T02:31:34.372Z,18.30
2022-08-02T02:34:10.398Z,18.10
2022-08-02T02:36:39.862Z,18.30
2022-08-02T02:39:13.266Z,18.10
2022-08-02T02:41:42.295Z,18.10
2022-08-02T02:44:13.319Z,18.10
2022-08-02T02:46:40.911Z,18.20
2022-08-02T02:49:11.046Z,18.20
2022-08-02T02:51:41.375Z,18.20
2022-08-02T02:54:32.008Z,18.20
2022-08-02T02:56:59.306Z,18.20
2022-08-02T02:59:26.365Z,18.20
2022-08-02T03:01:55.327Z,18.20
2022-08-02T03:04:25.233Z,18.20
2022-08-02T03:06:51.984Z,18.30
2022-08-02T03:09:18.672Z,18.30
2022-08-02T03:11:45.915Z,18.30
2022-08-02T03:14:13.263Z,18.30
2022-08-02T03:16:44.087Z,18.30
2022-08-02T03:19:10.875Z,18.40
2022-08-02T03:21:37.891Z,18.40
2022-08-02T03:24:05.242Z,18.30
2022-08-02T03:26:31.977Z,18.30
2022-08-02T03:28:58.658Z,18.30
2022-08-02T03:31:25.403Z,18.20
2022-08-02T03:33:53.344Z,18.20
2022-08-02T03:36:22.696Z,18.20
2022-08-02T03:38:51.315Z,18.20
2022-08-02T03:41:20.250Z,18.20
2022-08-02T03:43:48.425Z,18.10
2022-08-02T03:46:17.674Z,18.10
2022-08-02T03:48:44.663Z,18.00
2022-08-02T03:51:12.010Z,17.90
2022-08-02T03:53:39.253Z,17.80
2022-08-02T03:56:07.057Z,17.80
2022-08-02T03:58:34.353Z,17.70
2022-08-02T04:01:01.174Z,17.60
2022-08-02T04:03:27.905Z,17.70
2022-08-02T04:06:01.067Z,17.70
2022-08-02T04:08:35.310Z,17.70
2022-08-02T04:11:23.234Z,17.70
2022-08-02T04:13:50.062Z,17.60
2022-08-02T04:16:21.482Z,17.60
2022-08-02T04:18:57.885Z,17.60
2022-08-02T04:21:48.729Z,17.60
2022-08-02T04:24:18.937Z,17.60
2022-08-02T04:26:48.058Z,17.60
2022-08-02T04:29:18.196Z,17.40
2022-08-02T04:31:45.639Z,17.50
2022-08-02T04:34:15.446Z,17.40
2022-08-02T04:36:42.564Z,17.40
2022-08-02T04:39:09.291Z,17.40
2022-08-02T04:41:44.465Z,17.40
2022-08-02T04:44:12.527Z,17.30
2022-08-02T04:46:40.204Z,17.20
2022-08-02T04:49:07.320Z,17.30
2022-08-02T04:51:41.328Z,17.30
2022-08-02T04:54:10.413Z,17.40
2022-08-02T04:56:40.852Z,17.40
2022-08-02T04:59:07.984Z,17.50
2022-08-02T05:01:35.831Z,17.60
2022-08-02T05:04:03.211Z,17.70
2022-08-02T05:06:29.924Z,17.70
2022-08-02T05:08:56.871Z,17.70
2022-08-02T05:11:29.990Z,17.80
2022-08-02T05:14:04.370Z,17.80
2022-08-02T05:16:32.197Z,17.90
2022-08-02T05:19:01.082Z,18.00
2022-08-02T05:21:28.658Z,18.10
2022-08-02T05:23:55.318Z,18.10
2022-08-02T05:26:22.042Z,18.20
2022-08-02T05:28:48.797Z,18.30
2022-08-02T05:31:15.494Z,18.30
2022-08-02T05:33:42.146Z,18.40
2022-08-02T05:36:09.600Z,18.50
2022-08-02T05:38:37.768Z,18.60
2022-08-02T05:41:05.591Z,18.70
2022-08-02T05:43:32.757Z,18.80
2022-08-02T05:45:59.918Z,18.90
2022-08-02T05:48:31.656Z,18.90
2022-08-02T05:51:11.011Z,19.00
2022-08-02T05:53:51.587Z,19.10
2022-08-02T05:56:25.161Z,19.20
2022-08-02T05:59:12.924Z,19.30
2022-08-02T06:01:42.947Z,19.50
2022-08-02T06:04:16.496Z,19.60
2022-08-02T06:06:44.350Z,19.70
2022-08-02T06:09:23.157Z,19.90
2022-08-02T06:12:02.060Z,20.10
2022-08-02T06:14:33.201Z,20.20
2022-08-02T06:17:04.189Z,20.50
2022-08-02T06:19:50.954Z,20.60
2022-08-02T06:22:33.203Z,20.90
2022-08-02T06:25:03.912Z,21.20
2022-08-02T06:27:30.773Z,21.40
2022-08-02T06:29:58.287Z,21.70
2022-08-02T06:32:27.777Z,22.20
2022-08-02T06:34:54.596Z,22.90
2022-08-02T06:37:35.444Z,23.80
2022-08-02T06:40:07.937Z,24.70
2022-08-02T06:42:51.684Z,25.30
2022-08-02T06:45:18.506Z,25.60
2022-08-02T06:47:45.513Z,26.00
2022-08-02T06:50:12.281Z,26.40
2022-08-02T06:52:39.087Z,26.90
2022-08-02T06:55:06.664Z,27.60
2022-08-02T06:57:33.935Z,28.80
2022-08-02T07:00:02.542Z,30.20
2022-08-02T07:02:30.795Z,31.60
2022-08-02T07:04:57.698Z,32.60
2022-08-02T07:07:24.543Z,33.70
2022-08-02T07:09:56.587Z,34.40
2022-08-02T07:12:32.329Z,35.00
2022-08-02T07:15:05.440Z,35.50
2022-08-02T07:17:32.474Z,36.00
2022-08-02T07:20:00.155Z,36.20
2022-08-02T07:22:28.075Z,36.30
2022-08-02T07:24:59.850Z,36.10
2022-08-02T07:27:27.189Z,35.90
2022-08-02T07:29:54.353Z,35.60
2022-08-02T07:32:25.650Z,35.50
2022-08-02T07:34:54.184Z,35.20
2022-08-02T07:37:53.238Z,34.70
2022-08-02T07:40:19.857Z,34.40
2022-08-02T07:42:49.822Z,33.80
2022-08-02T07:45:16.566Z,33.20
2022-08-02T07:47:44.850Z,32.90
2022-08-02T07:50:14.199Z,32.40
2022-08-02T07:52:41.775Z,32.20
2022-08-02T07:55:10.289Z,31.80
2022-08-02T07:57:38.701Z,31.50
2022-08-02T08:00:11.679Z,31.40
2022-08-02T08:02:39.328Z,31.40
2022-08-02T08:05:07.006Z,31.30
2022-08-02T08:07:34.954Z,31.20
2022-08-02T08:10:02.358Z,31.30
2022-08-02T08:12:29.134Z,31.30
2022-08-02T08:14:55.820Z,31.30
2022-08-02T08:17:23.223Z,31.30
2022-08-02T08:19:51.130Z,31.40
2022-08-02T08:22:21.999Z,31.40
2022-08-02T08:24:49.457Z,31.50
2022-08-02T08:27:22.403Z,31.70
2022-08-02T08:29:49.853Z,31.80
2022-08-02T08:32:17.521Z,31.80
2022-08-02T08:34:45.904Z,31.90
2022-08-02T08:37:17.118Z,32.10
2022-08-02T08:39:56.689Z,32.20
2022-08-02T08:42:27.184Z,32.30
2022-08-02T08:44:56.310Z,32.20
2022-08-02T08:47:24.121Z,32.10
2022-08-02T08:49:54.893Z,32.30
2022-08-02T08:52:25.607Z,32.40
2022-08-02T08:54:52.986Z,32.60
2022-08-02T08:57:21.295Z,32.60
2022-08-02T08:59:48.038Z,32.60
2022-08-02T09:02:19.658Z,32.60
2022-08-02T09:04:54.433Z,32.80
2022-08-02T09:07:22.464Z,33.00
2022-08-02T09:09:49.156Z,32.90
2022-08-02T09:12:22.266Z,32.80
2022-08-02T09:14:50.427Z,32.90
2022-08-02T09:17:18.468Z,33.00
2022-08-02T09:19:46.004Z,33.20
2022-08-02T09:22:15.895Z,33.60
2022-08-02T09:24:45.521Z,33.80
2022-08-02T09:27:17.543Z,33.80
2022-08-02T09:30:12.345Z,33.80
2022-08-02T09:32:49.925Z,33.60
2022-08-02T09:36:05.799Z,33.50
2022-08-02T09:38:25.961Z,33.50
2022-08-02T09:40:53.110Z,33.50
2022-08-02T09:43:20.836Z,33.40
2022-08-02T09:45:47.562Z,33.10
2022-08-02T09:48:14.262Z,33.10
2022-08-02T09:50:42.723Z,32.90
2022-08-02T09:53:13.890Z,32.90
2022-08-02T09:55:42.099Z,33.30
2022-08-02T09:58:20.120Z,33.80
2022-08-02T10:00:58.895Z,34.10
2022-08-02T10:03:34.770Z,34.30
2022-08-02T10:06:03.185Z,34.50
2022-08-02T10:08:33.054Z,34.70
2022-08-02T10:11:01.789Z,34.50
2022-08-02T10:13:35.259Z,34.10
2022-08-02T10:16:03.608Z,34.10
2022-08-02T10:18:45.642Z,33.90
2022-08-02T10:21:36.858Z,33.80
2022-08-02T10:24:09.944Z,34.30
2022-08-02T10:26:42.455Z,34.40
2022-08-02T10:29:10.303Z,34.70
2022-08-02T10:31:47.149Z,35.10
2022-08-02T10:34:18.517Z,35.50
2022-08-02T10:36:46.216Z,35.80
2022-08-02T10:39:13.335Z,36.20
2022-08-02T10:41:40.905Z,36.60
2022-08-02T10:44:07.890Z,36.80
2022-08-02T10:46:52.442Z,37.00
2022-08-02T10:52:08.942Z,36.50
2022-08-02T10:54:59.069Z,36.30
2022-08-02T10:57:31.722Z,36.40
2022-08-02T11:00:03.947Z,36.60
2022-08-02T11:02:39.991Z,36.60
2022-08-02T11:05:18.553Z,36.90
2022-08-02T11:07:49.587Z,36.80
2022-08-02T11:10:33.872Z,37.00
2022-08-02T11:13:00.487Z,37.10
2022-08-02T11:15:28.518Z,36.50
2022-08-02T11:17:58.874Z,36.20
2022-08-02T11:20:27.781Z,36.10
2022-08-02T11:22:55.674Z,36.20
2022-08-02T11:25:22.326Z,36.50
2022-08-02T11:27:57.158Z,36.80
2022-08-02T11:30:26.610Z,37.10
2022-08-02T11:33:00.875Z,37.30
2022-08-02T11:35:38.753Z,37.20
2022-08-02T11:38:19.437Z,37.00
2022-08-02T11:40:47.358Z,37.10
2022-08-02T11:43:24.753Z,37.10
2022-08-02T11:45:53.274Z,37.00
2022-08-02T11:48:38.873Z,37.20
2022-08-02T11:51:11.202Z,37.30
2022-08-02T11:53:52.023Z,37.30
2022-08-02T11:56:27.522Z,37.60
2022-08-02T11:59:09.352Z,37.80
2022-08-02T12:01:45.734Z,37.70
2022-08-02T12:04:17.421Z,37.60
2022-08-02T12:06:53.310Z,37.50
2022-08-02T12:09:20.105Z,37.30
2022-08-02T12:11:50.938Z,37.10
2022-08-02T12:14:20.916Z,37.40
2022-08-02T12:17:07.613Z,37.70
2022-08-02T12:19:36.805Z,37.80
2022-08-02T12:22:14.011Z,38.10
2022-08-02T12:24:44.155Z,38.20
2022-08-02T12:27:27.107Z,38.10
2022-08-02T12:30:00.399Z,37.90
2022-08-02T12:32:27.241Z,37.20
2022-08-02T12:35:09.415Z,36.90
2022-08-02T12:37:39.955Z,36.50
2022-08-02T12:40:26.192Z,36.20
2022-08-02T12:42:58.689Z,36.10
2022-08-02T12:45:27.389Z,36.20
2022-08-02T12:48:09.245Z,36.50
2022-08-02T12:50:39.743Z,36.80
2022-08-02T12:53:15.654Z,37.10
2022-08-02T12:56:01.905Z,37.20
2022-08-02T12:58:31.386Z,37.00
2022-08-02T13:01:00.352Z,36.90
2022-08-02T13:04:11.628Z,36.60
2022-08-02T13:09:01.362Z,36.00
2022-08-02T13:11:28.369Z,35.90
2022-08-02T13:13:55.915Z,36.10
2022-08-02T13:16:31.130Z,36.40
2022-08-02T13:18:58.335Z,36.80
2022-08-02T13:21:41.656Z,37.10
2022-08-02T13:24:32.710Z,37.30
2022-08-02T13:27:07.892Z,37.40
2022-08-02T13:29:38.901Z,37.60
2022-08-02T13:32:06.033Z,37.60
2022-08-02T13:34:32.758Z,37.70
2022-08-02T13:36:59.477Z,37.60
2022-08-02T13:39:26.185Z,37.60
2022-08-02T13:41:53.038Z,37.60
2022-08-02T13:44:19.825Z,37.60
2022-08-02T13:46:46.587Z,37.60
2022-08-02T13:49:19.036Z,37.30
2022-08-02T13:51:47.408Z,37.20
2022-08-02T13:54:14.903Z,37.00
2022-08-02T13:56:41.756Z,36.30
2022-08-02T13:59:53.869Z,35.70
2022-08-02T14:01:56.613Z,35.10
2022-08-02T14:04:23.780Z,35.10
2022-08-02T14:06:50.947Z,34.80
2022-08-02T14:09:18.067Z,34.60
2022-08-02T14:11:46.071Z,34.60
2022-08-02T14:14:16.686Z,34.50
2022-08-02T14:16:46.816Z,34.20
2022-08-02T14:19:16.671Z,34.20
2022-08-02T14:21:47.968Z,34.40
2022-08-02T14:24:16.584Z,34.50
2022-08-02T14:26:43.683Z,34.30
2022-08-02T14:29:10.418Z,34.10
2022-08-02T14:31:43.262Z,33.90
2022-08-02T14:34:11.146Z,33.80
2022-08-02T14:36:38.813Z,33.80
2022-08-02T14:39:05.918Z,33.90
2022-08-02T14:41:54.670Z,34.10
2022-08-02T14:44:20.520Z,34.30
2022-08-02T14:46:47.305Z,34.30
2022-08-02T14:49:25.768Z,34.20
2022-08-02T14:51:54.467Z,34.10
2022-08-02T14:54:30.103Z,34.20
2022-08-02T14:57:02.345Z,34.30
2022-08-02T14:59:30.121Z,34.30
2022-08-02T15:01:57.080Z,34.20
2022-08-02T15:04:23.891Z,34.10
2022-08-02T15:06:51.013Z,34.00
2022-08-02T15:09:17.794Z,34.00
2022-08-02T15:11:47.384Z,34.10
2022-08-02T15:14:15.694Z,34.10
2022-08-02T15:16:56.114Z,34.10
2022-08-02T15:19:25.899Z,34.10
2022-08-02T15:22:07.958Z,34.20
2022-08-02T15:24:34.695Z,34.20
2022-08-02T15:27:01.368Z,34.20
2022-08-02T15:29:28.149Z,34.20
2022-08-02T15:31:54.817Z,34.20
2022-08-02T15:34:21.458Z,34.20
2022-08-02T15:36:48.107Z,34.00
2022-08-02T15:39:14.771Z,33.90
2022-08-02T15:41:41.525Z,33.80
2022-08-02T15:44:09.501Z,33.70
2022-08-02T15:46:37.729Z,33.60
2022-08-02T15:49:04.656Z,33.60
2022-08-02T15:51:31.430Z,33.40
2022-08-02T15:53:58.124Z,33.30
2022-08-02T15:56:24.783Z,33.10
2022-08-02T15:58:53.008Z,33.00
2022-08-02T16:01:23.769Z,32.90
2022-08-02T16:03:50.584Z,32.80
2022-08-02T16:06:17.359Z,32.80
2022-08-02T16:08:51.703Z,32.70
2022-08-02T16:11:20.791Z,32.70
2022-08-02T16:13:53.263Z,32.50
2022-08-02T16:16:25.900Z,32.40
2022-08-02T16:18:52.634Z,32.50
2022-08-02T16:21:19.418Z,32.40
2022-08-02T16:24:01.109Z,32.30
2022-08-02T16:26:30.407Z,32.20
2022-08-02T16:28:58.522Z,32.20
2022-08-02T16:31:25.217Z,32.20
2022-08-02T16:33:56.251Z,32.20
2022-08-02T16:36:27.265Z,32.20
2022-08-02T16:38:55.263Z,32.20
2022-08-02T16:41:22.954Z,32.30
2022-08-02T16:43:50.084Z,32.40
2022-08-02T16:46:16.967Z,32.30
2022-08-02T16:48:51.171Z,32.40
2022-08-02T16:51:18.697Z,32.40
2022-08-02T16:54:00.212Z,32.50
2022-08-02T16:56:28.904Z,32.50
2022-08-02T16:58:59.707Z,32.40
2022-08-02T17:02:01.697Z,32.20
2022-08-02T17:04:14.504Z,32.30
2022-08-02T17:06:47.421Z,32.20
2022-08-02T17:10:02.388Z,32.30
2022-08-02T17:12:07.622Z,32.20
2022-08-02T17:14:54.513Z,32.30
2022-08-02T17:17:21.445Z,32.20
2022-08-02T17:19:48.186Z,32.00
2022-08-02T17:22:15.745Z,31.80
2022-08-02T17:24:44.755Z,31.70
2022-08-02T17:27:17.098Z,31.70
2022-08-02T17:29:43.859Z,31.50
2022-08-02T17:32:14.666Z,31.50
2022-08-02T17:34:48.960Z,31.40
2022-08-02T17:37:23.512Z,31.40
2022-08-02T17:39:51.840Z,31.30
2022-08-02T17:42:36.867Z,31.30
2022-08-02T17:45:16.405Z,31.20
2022-08-02T17:48:04.422Z,31.10
2022-08-02T17:50:33.793Z,30.90
2022-08-02T17:53:01.014Z,30.80
2022-08-02T17:55:31.176Z,30.80
2022-08-02T17:57:59.454Z,30.70
2022-08-02T18:00:34.358Z,30.60
2022-08-02T18:03:05.674Z,30.60
2022-08-02T18:05:39.408Z,30.50
2022-08-02T18:08:09.284Z,30.30
2022-08-02T18:10:35.991Z,30.20
2022-08-02T18:13:03.582Z,30.10
2022-08-02T18:15:32.581Z,30.00
2022-08-02T18:18:00.127Z,29.80
2022-08-02T18:20:26.820Z,29.60
2022-08-02T18:22:55.475Z,29.50
2022-08-02T18:25:37.193Z,29.20
2022-08-02T18:28:11.470Z,29.00
2022-08-02T18:30:38.200Z,28.80
2022-08-02T18:33:58.269Z,28.60
2022-08-02T18:35:55.671Z,28.50
2022-08-02T18:38:23.265Z,28.30
2022-08-02T18:40:50.977Z,28.20
2022-08-02T18:43:18.637Z,28.20
2022-08-02T18:46:05.952Z,28.10
2022-08-02T18:48:34.563Z,28.10
2022-08-02T18:51:03.057Z,27.90
2022-08-02T18:53:41.338Z,27.90
2022-08-02T18:56:19.829Z,27.70
2022-08-02T18:58:52.323Z,27.40
2022-08-02T19:01:21.828Z,27.20
2022-08-02T19:04:00.301Z,27.00
2022-08-02T19:06:27.695Z,26.90
2022-08-02T19:08:59.672Z,26.70
2022-08-02T19:11:37.046Z,26.70
2022-08-02T19:14:04.140Z,26.60
2022-08-02T19:16:37.537Z,26.50
2022-08-02T19:19:06.164Z,26.30
2022-08-02T19:22:16.339Z,26.30
2022-08-02T19:24:20.147Z,26.00
2022-08-02T19:26:51.629Z,25.90
2022-08-02T19:29:25.178Z,25.80
2022-08-02T19:32:40.239Z,25.80
2022-08-02T19:34:53.712Z,25.70
2022-08-02T19:37:20.701Z,25.60
2022-08-02T19:39:47.643Z,25.40
2022-08-02T19:42:14.875Z,25.30
2022-08-02T19:44:45.045Z,25.20
2022-08-02T19:47:13.007Z,25.20
2022-08-02T19:49:46.444Z,25.00
2022-08-02T19:52:21.671Z,24.90
2022-08-02T19:54:55.637Z,24.80
2022-08-02T19:57:25.004Z,24.70
2022-08-02T19:59:52.698Z,24.60
2022-08-02T20:02:21.133Z,24.60
2022-08-02T20:04:50.092Z,24.60
2022-08-02T20:07:48.217Z,24.60
2022-08-02T20:10:04.425Z,24.50
2022-08-02T20:15:18.264Z,24.30
2022-08-02T20:17:47.585Z,24.30
2022-08-02T20:20:16.838Z,24.10
2022-08-02T20:23:32.861Z,24.10
2022-08-02T20:25:50.404Z,24.00
2022-08-02T20:28:22.105Z,23.90
2022-08-02T20:30:49.661Z,23.80
2022-08-02T20:33:21.642Z,23.70
2022-08-02T20:35:49.411Z,23.50
2022-08-02T20:38:16.449Z,23.60
2022-08-02T20:40:43.413Z,23.50
2022-08-02T20:43:10.597Z,23.40
2022-08-02T20:45:37.259Z,23.40
2022-08-02T20:48:04.258Z,23.30
2022-08-02T20:50:49.153Z,23.30
2022-08-02T20:53:23.926Z,23.30
2022-08-02T20:55:53.691Z,23.20
2022-08-02T20:58:20.550Z,23.10
2022-08-02T21:00:58.594Z,22.90
2022-08-02T21:03:32.361Z,22.70
2022-08-02T21:06:09.933Z,22.70
2022-08-02T21:08:38.245Z,22.80
2022-08-02T21:11:09.380Z,22.80
2022-08-02T21:13:46.486Z,22.80
2022-08-02T21:16:18.294Z,22.80
2022-08-02T21:19:01.198Z,22.80
2022-08-02T21:21:29.641Z,22.60
2022-08-02T21:23:56.993Z,22.40
2022-08-02T21:26:28.431Z,22.20
2022-08-02T21:28:57.976Z,22.10
2022-08-02T21:31:29.984Z,22.10
2022-08-02T21:34:00.275Z,22.00
2022-08-02T21:36:30.997Z,21.90
2022-08-02T21:38:59.701Z,21.90
2022-08-02T21:41:39.517Z,21.80
2022-08-02T21:44:13.501Z,21.80
2022-08-02T21:46:44.277Z,22.00
2022-08-02T21:49:13.233Z,21.90
2022-08-02T21:51:42.766Z,21.90
2022-08-02T21:54:18.008Z,21.90
2022-08-02T21:56:57.120Z,21.90
2022-08-02T21:59:26.713Z,21.80
2022-08-02T22:01:57.708Z,21.80
2022-08-02T22:04:26.271Z,21.70
2022-08-02T22:06:55.023Z,21.70
2022-08-02T22:09:43.475Z,21.80
2022-08-02T22:12:17.065Z,21.80
2022-08-02T22:14:49.640Z,21.80
2022-08-02T22:17:21.593Z,21.80
2022-08-02T22:20:08.951Z,21.80
2022-08-02T22:22:39.106Z,21.80
2022-08-02T22:25:06.290Z,21.80
2022-08-02T22:28:15.768Z,21.80
2022-08-02T22:30:23.652Z,21.70
2022-08-02T22:33:14.932Z,21.70
2022-08-02T22:35:42.195Z,21.60
2022-08-02T22:38:16.609Z,21.60
2022-08-02T22:40:48.253Z,21.50
2022-08-02T22:43:15.907Z,21.40
2022-08-02T22:45:50.237Z,21.30
2022-08-02T22:48:17.068Z,21.10
2022-08-02T22:50:43.763Z,21.00
2022-08-02T22:53:10.583Z,21.00
2022-08-02T22:55:41.597Z,20.90
2022-08-02T22:58:09.204Z,20.80
2022-08-02T22:58:54.799Z,24.40
2022-08-02T23:00:35.896Z,20.70
2022-08-02T23:03:02.851Z,20.80
2022-08-02T23:05:30.395Z,20.70
2022-08-02T23:07:57.063Z,20.70
2022-08-02T23:10:24.219Z,20.70
2022-08-02T23:12:51.050Z,20.60
2022-08-02T23:15:17.726Z,20.40
2022-08-02T23:18:02.856Z,20.40
2022-08-02T23:20:29.606Z,20.40
2022-08-02T23:22:56.254Z,20.20
2022-08-02T23:25:23.081Z,20.10
2022-08-02T23:27:51.151Z,20.00
2022-08-02T23:30:19.087Z,19.90
2022-08-02T23:32:47.030Z,19.80
2022-08-02T23:35:16.650Z,19.70
2022-08-02T23:37:59.131Z,19.70
2022-08-02T23:40:39.135Z,19.70
2022-08-02T23:43:13.352Z,19.60
2022-08-02T23:45:46.168Z,19.40
2022-08-02T23:48:13.266Z,19.40
2022-08-02T23:50:39.982Z,19.30
2022-08-02T23:53:06.721Z,19.20
2022-08-02T23:55:33.424Z,19.20
2022-08-02T23:58:00.182Z,19.20
